TJNR/NRR METAR and TAF weather

Enter ICAO airport designator
Station Type Date Time Source
TJNR METAR 2019/06/20 16:53 UTC NOAA

TJNR 201653Z AUTO 11013KT 7SM SCT013 BKN034 BKN045 32/25 A3013 RMK AO2 SLP203 T03170250


Station Type Date Time Source
TJNR Decoded METAR 2019/06/20 16:53 UTC NOAA

ROOSEVELT ROADS PUERTO RICO, PR, United States (TJNR) 18-15N 65-38W 10M
Jun 20, 2019 - 12:53 PM EDT / 2019.06.20 1653 UTC
Wind: from the ESE (110 degrees) at 15 MPH (13 KT):0
Visibility: 7 mile(s):0
Sky conditions: mostly cloudy
Temperature: 89.1 F (31.7 C)
Heat index: 101.5 F (38.6 C):1
Dew Point: 77.0 F (25.0 C)
Relative Humidity: 67%
Pressure (altimeter): 30.13 in. Hg (1020 hPa)
ob: TJNR 201653Z AUTO 11013KT 7SM SCT013 BKN034 BKN045 32/25 A3013 RMK AO2 SLP203 T03170250
cycle: 17

Station Type Date Time Source
TJNR TAF UTC NOAA

Error!

Example: see airport list